Time;durP1;ratioP1;P1;durP2;ratioP2;P2;SDS_P1;SDS_P2;PMS_P1;PMS_P2;Temp;Humidity;BMP_temperature;BMP_pressure;BME280_temperature;BME280_humidity;BME280_pressure;Samples;Min_cycle;Max_cycle;Signal;HPM_P1;HPM_P2
2021/06/21 00:00:14;;;;;;;11.10;6.78;;;27.30;57.20;;;;;;6238467;27;80019;-68
2021/06/21 00:03:14;;;;;;;11.82;5.97;;;27.30;57.10;;;;;;6247941;27;81227;-68
2021/06/21 00:06:15;;;;;;;11.23;6.00;;;27.30;57.10;;;;;;6236773;27;80619;-69
2021/06/21 00:09:15;;;;;;;6.30;5.38;;;27.30;57.10;;;;;;6243530;27;80379;-69
2021/06/21 00:12:16;;;;;;;8.75;5.93;;;27.40;57.30;;;;;;6234809;27;80461;-68
2021/06/21 00:15:16;;;;;;;7.88;6.55;;;27.40;57.10;;;;;;6243826;27;80799;-69
2021/06/21 00:18:17;;;;;;;7.28;6.10;;;27.30;57.20;;;;;;6237858;27;80533;-68
2021/06/21 00:21:17;;;;;;;6.93;5.90;;;27.30;57.10;;;;;;6235606;28;80974;-69
2021/06/21 00:24:20;;;;;;;11.07;5.78;;;27.40;57.10;;;;;;6235647;27;80803;-69
2021/06/21 00:27:21;;;;;;;13.00;6.70;;;27.30;56.90;;;;;;6245726;27;81439;-68
2021/06/21 00:30:21;;;;;;;9.20;6.07;;;27.30;57.20;;;;;;6235716;27;82919;-65
2021/06/21 00:33:22;;;;;;;8.13;6.30;;;27.30;56.70;;;;;;6235729;27;83311;-67
2021/06/21 00:36:22;;;;;;;7.25;6.22;;;27.30;56.90;;;;;;6237466;27;80946;-67
2021/06/21 00:39:23;;;;;;;7.60;5.85;;;27.40;57.40;;;;;;6238352;28;81192;-67
2021/06/21 00:42:23;;;;;;;7.00;5.75;;;27.30;57.30;;;;;;6235643;27;81589;-67
2021/06/21 00:45:24;;;;;;;9.88;7.00;;;27.40;57.30;;;;;;6241289;27;80360;-67
2021/06/21 00:48:24;;;;;;;13.10;6.43;;;27.40;57.50;;;;;;6240422;27;81619;-67
2021/06/21 00:51:25;;;;;;;8.30;6.80;;;27.40;56.90;;;;;;6240632;27;80190;-66
2021/06/21 00:54:26;;;;;;;9.13;6.22;;;27.40;57.20;;;;;;6238286;27;80571;-67
2021/06/21 00:57:26;;;;;;;10.82;7.20;;;27.30;57.30;;;;;;6243254;27;80080;-68
2021/06/21 01:00:27;;;;;;;9.23;6.60;;;27.30;56.80;;;;;;6237219;27;80359;-67
2021/06/21 01:03:27;;;;;;;11.35;6.60;;;27.30;57.10;;;;;;6232637;27;80566;-68
2021/06/21 01:06:28;;;;;;;8.30;6.68;;;27.40;57.30;;;;;;6226842;27;80605;-67
2021/06/21 01:09:28;;;;;;;8.65;7.03;;;27.40;57.40;;;;;;6239974;27;80388;-67
2021/06/21 01:12:29;;;;;;;8.60;6.43;;;27.30;57.10;;;;;;6233484;27;83026;-67
2021/06/21 01:15:29;;;;;;;6.72;6.03;;;27.40;57.20;;;;;;6236436;27;80416;-67
2021/06/21 01:18:30;;;;;;;10.55;6.80;;;27.40;57.40;;;;;;6235960;27;80508;-67
2021/06/21 01:21:30;;;;;;;8.32;6.25;;;27.30;56.90;;;;;;6235311;28;80554;-67
2021/06/21 01:24:31;;;;;;;9.10;6.78;;;27.30;56.80;;;;;;6242260;27;81655;-67
2021/06/21 01:27:31;;;;;;;8.23;6.97;;;27.30;56.80;;;;;;6231040;28;80529;-67
2021/06/21 01:30:32;;;;;;;10.68;7.10;;;27.40;56.80;;;;;;6233061;27;80503;-66
2021/06/21 01:33:33;;;;;;;11.15;7.10;;;27.30;56.80;;;;;;6233968;27;81155;-66
2021/06/21 01:36:33;;;;;;;11.10;7.50;;;27.30;56.80;;;;;;6233757;27;81381;-67
2021/06/21 01:39:34;;;;;;;11.98;7.25;;;27.30;56.70;;;;;;6234365;28;80970;-67
2021/06/21 01:42:34;;;;;;;10.48;6.97;;;27.20;56.90;;;;;;6239479;27;80455;-66
2021/06/21 01:45:35;;;;;;;13.90;7.32;;;27.20;56.90;;;;;;6243535;27;80524;-66
2021/06/21 01:48:36;;;;;;;10.98;7.38;;;27.20;56.80;;;;;;6244763;27;80647;-66
2021/06/21 01:51:36;;;;;;;8.70;6.22;;;27.20;57.10;;;;;;6237553;27;80765;-67
2021/06/21 01:54:37;;;;;;;8.93;5.93;;;27.20;57.20;;;;;;6237579;27;80324;-67
2021/06/21 01:57:37;;;;;;;7.85;6.18;;;27.20;57.00;;;;;;6238010;27;81040;-67
2021/06/21 02:00:38;;;;;;;8.85;6.68;;;27.30;57.00;;;;;;6236811;27;80884;-68
2021/06/21 02:03:39;;;;;;;12.15;7.50;;;27.20;56.60;;;;;;6235261;28;80324;-68
2021/06/21 02:06:39;;;;;;;7.72;6.78;;;27.30;56.60;;;;;;6234189;28;81101;-68
2021/06/21 02:09:40;;;;;;;13.05;7.03;;;27.20;56.50;;;;;;6239459;27;81585;-66
2021/06/21 02:12:40;;;;;;;8.85;6.70;;;27.30;57.00;;;;;;6231191;27;81675;-66
2021/06/21 02:15:41;;;;;;;12.57;6.75;;;27.20;57.00;;;;;;6238248;27;80295;-66
2021/06/21 02:18:41;;;;;;;7.85;6.47;;;27.20;56.40;;;;;;6235481;28;80853;-66
2021/06/21 02:21:42;;;;;;;14.55;7.43;;;27.20;56.50;;;;;;6232392;27;82326;-67
2021/06/21 02:24:42;;;;;;;12.23;7.47;;;27.20;56.60;;;;;;6236716;27;80287;-67
2021/06/21 02:27:43;;;;;;;9.90;7.47;;;27.20;56.70;;;;;;6240423;28;80429;-66
2021/06/21 02:30:43;;;;;;;8.93;7.00;;;27.10;56.50;;;;;;6235360;27;80608;-67
2021/06/21 02:33:44;;;;;;;12.68;7.72;;;27.10;56.80;;;;;;6239730;28;80167;-67
2021/06/21 02:36:44;;;;;;;8.82;6.65;;;27.10;56.50;;;;;;6235707;27;81077;-67
2021/06/21 02:39:45;;;;;;;9.35;6.72;;;27.00;56.40;;;;;;6236359;28;80509;-67
2021/06/21 02:42:45;;;;;;;13.40;6.63;;;27.00;57.00;;;;;;6237937;28;80998;-66
2021/06/21 02:45:46;;;;;;;7.28;6.30;;;27.00;56.70;;;;;;6227164;28;81535;-67
2021/06/21 02:48:46;;;;;;;9.35;6.05;;;27.00;57.00;;;;;;6234443;27;81169;-67
2021/06/21 02:51:49;;;;;;;11.68;6.43;;;27.10;56.90;;;;;;6234464;28;81467;-69
2021/06/21 02:54:50;;;;;;;7.88;6.72;;;27.10;57.00;;;;;;6233207;27;80269;-67
2021/06/21 02:57:50;;;;;;;10.23;6.35;;;27.10;56.80;;;;;;6239789;27;81137;-67
2021/06/21 03:00:51;;;;;;;13.27;6.47;;;27.10;56.40;;;;;;6243905;28;87144;-66
2021/06/21 03:03:51;;;;;;;8.43;5.90;;;27.10;56.40;;;;;;6238518;27;80556;-66
2021/06/21 03:06:52;;;;;;;12.90;6.78;;;27.10;56.80;;;;;;6233878;27;80041;-66
2021/06/21 03:09:52;;;;;;;6.97;6.32;;;27.10;56.80;;;;;;6230542;27;83289;-66
2021/06/21 03:12:53;;;;;;;10.25;6.60;;;27.10;56.90;;;;;;6232937;27;83906;-66
2021/06/21 03:15:54;;;;;;;8.98;6.25;;;27.10;57.00;;;;;;6231850;27;80842;-67
2021/06/21 03:18:54;;;;;;;10.35;7.22;;;27.10;57.10;;;;;;6233870;28;80431;-67
2021/06/21 03:21:55;;;;;;;11.40;6.82;;;27.10;57.30;;;;;;6242472;27;80690;-67
2021/06/21 03:24:55;;;;;;;9.60;7.03;;;27.10;57.40;;;;;;6232736;28;80944;-67
2021/06/21 03:27:56;;;;;;;12.70;7.05;;;27.10;57.10;;;;;;6235375;27;80499;-67
2021/06/21 03:30:57;;;;;;;10.15;7.93;;;27.00;56.90;;;;;;6233288;27;80881;-65
2021/06/21 03:33:58;;;;;;;15.23;8.38;;;27.00;56.80;;;;;;6241758;27;82167;-66
2021/06/21 03:36:58;;;;;;;18.75;7.53;;;27.00;56.80;;;;;;6229059;27;80492;-66
2021/06/21 03:39:59;;;;;;;9.57;6.95;;;27.00;57.10;;;;;;6230334;28;80504;-66
2021/06/21 03:42:59;;;;;;;14.73;7.03;;;27.00;57.10;;;;;;6232463;27;80585;-66
2021/06/21 03:46:00;;;;;;;14.13;7.55;;;27.00;57.10;;;;;;6233289;27;81430;-66
2021/06/21 03:49:00;;;;;;;14.77;6.68;;;27.00;57.80;;;;;;6239196;27;80543;-66
2021/06/21 03:52:01;;;;;;;11.18;6.15;;;27.00;57.20;;;;;;6233995;28;80080;-66
2021/06/21 03:55:07;;;;;;;10.13;6.60;;;27.10;57.20;;;;;;6231831;27;80506;-67
2021/06/21 03:58:08;;;;;;;12.48;6.82;;;27.00;56.90;;;;;;6235861;28;80691;-66
2021/06/21 04:01:08;;;;;;;10.15;7.25;;;27.00;57.00;;;;;;6240320;27;80546;-66
2021/06/21 04:04:09;;;;;;;11.73;6.93;;;27.00;56.90;;;;;;6233609;27;80453;-66
2021/06/21 04:07:09;;;;;;;10.77;7.22;;;27.00;56.90;;;;;;6227126;28;83192;-66
2021/06/21 04:10:10;;;;;;;7.88;7.00;;;27.10;56.90;;;;;;6236072;27;80480;-66
2021/06/21 04:13:11;;;;;;;17.15;8.10;;;27.10;57.00;;;;;;6231685;27;80847;-66
2021/06/21 04:16:11;;;;;;;14.43;7.80;;;27.00;56.90;;;;;;6237648;27;80832;-66
2021/06/21 04:19:12;;;;;;;14.32;7.32;;;27.00;56.90;;;;;;6233466;27;81362;-66
2021/06/21 04:22:12;;;;;;;9.57;7.35;;;27.00;57.00;;;;;;6232540;27;80551;-66
2021/06/21 04:25:13;;;;;;;12.48;7.82;;;27.00;57.30;;;;;;6234329;27;80407;-65
2021/06/21 04:28:13;;;;;;;9.27;7.88;;;27.00;57.30;;;;;;6233493;27;80603;-66
2021/06/21 04:31:14;;;;;;;10.18;8.20;;;27.00;57.50;;;;;;6235579;28;80084;-67
2021/06/21 04:34:14;;;;;;;9.27;7.80;;;27.10;57.50;;;;;;6244758;27;80309;-67
2021/06/21 04:37:15;;;;;;;11.90;7.40;;;27.00;57.40;;;;;;6243819;27;81284;-67
2021/06/21 04:40:15;;;;;;;13.38;8.00;;;27.10;57.60;;;;;;6240055;27;80616;-67
2021/06/21 04:43:16;;;;;;;11.52;7.60;;;27.10;58.20;;;;;;6238371;27;82574;-67
2021/06/21 04:46:16;;;;;;;11.85;7.18;;;27.10;58.10;;;;;;6238415;27;80367;-67
2021/06/21 04:49:17;;;;;;;10.38;7.07;;;27.10;58.20;;;;;;6236242;27;80318;-68
2021/06/21 04:52:19;;;;;;;9.38;6.35;;;27.10;58.30;;;;;;6235615;28;80608;-69
2021/06/21 04:55:19;;;;;;;11.80;6.60;;;27.10;58.20;;;;;;6236488;27;80962;-67
2021/06/21 04:58:20;;;;;;;9.27;6.13;;;27.10;59.30;;;;;;6232019;27;81469;-67
2021/06/21 05:01:20;;;;;;;10.23;6.57;;;27.20;58.10;;;;;;6235359;27;81293;-68
2021/06/21 05:04:21;;;;;;;10.40;6.65;;;27.20;59.20;;;;;;6236979;27;80703;-69
2021/06/21 05:07:21;;;;;;;12.93;6.75;;;27.20;58.10;;;;;;6236927;27;80662;-68
2021/06/21 05:10:22;;;;;;;8.20;6.18;;;27.20;59.20;;;;;;6237620;27;82979;-69
2021/06/21 05:13:22;;;;;;;11.63;6.30;;;27.20;58.90;;;;;;6230925;27;80544;-71
2021/06/21 05:16:23;;;;;;;7.22;6.35;;;27.20;59.00;;;;;;6229565;27;80551;-70
2021/06/21 05:19:23;;;;;;;14.75;6.72;;;27.20;59.10;;;;;;6243122;27;80512;-70
2021/06/21 05:22:24;;;;;;;14.82;6.35;;;27.20;59.20;;;;;;6238354;27;81239;-70
2021/06/21 05:25:24;;;;;;;10.43;6.22;;;27.20;58.60;;;;;;6235026;27;80386;-69
2021/06/21 05:28:25;;;;;;;6.82;5.82;;;27.20;58.90;;;;;;6234196;27;81122;-70
2021/06/21 05:31:26;;;;;;;7.80;6.45;;;27.20;57.90;;;;;;6235820;27;81076;-70
2021/06/21 05:34:26;;;;;;;8.13;6.70;;;27.30;58.00;;;;;;6236946;27;80109;-70
2021/06/21 05:37:27;;;;;;;10.93;6.28;;;27.20;57.90;;;;;;6236303;27;80151;-70
2021/06/21 05:40:27;;;;;;;10.45;6.80;;;27.20;57.80;;;;;;6235809;27;81449;-70
2021/06/21 05:43:28;;;;;;;9.95;6.63;;;27.30;58.20;;;;;;6233779;27;81853;-69
2021/06/21 05:46:29;;;;;;;11.00;6.70;;;27.30;58.20;;;;;;6234479;28;80395;-69
2021/06/21 05:49:29;;;;;;;8.05;6.40;;;27.30;58.10;;;;;;6235850;27;81594;-70
2021/06/21 05:52:30;;;;;;;11.68;8.00;;;27.30;58.00;;;;;;6233208;28;80430;-70
2021/06/21 05:55:30;;;;;;;8.55;6.38;;;27.30;57.70;;;;;;6233824;27;80656;-71
2021/06/21 05:58:31;;;;;;;12.40;6.55;;;27.30;57.80;;;;;;6228246;28;80611;-71
2021/06/21 06:01:31;;;;;;;9.15;6.50;;;27.30;57.80;;;;;;6249168;27;85206;-68
2021/06/21 06:04:32;;;;;;;8.80;6.47;;;27.30;57.90;;;;;;6246254;27;80368;-68
2021/06/21 06:07:33;;;;;;;8.05;6.45;;;27.30;57.50;;;;;;6237580;27;81419;-71
2021/06/21 06:10:34;;;;;;;14.13;7.13;;;27.30;57.20;;;;;;6239502;27;81988;-69
2021/06/21 06:13:34;;;;;;;11.73;6.40;;;27.30;58.40;;;;;;6235573;27;80719;-68
2021/06/21 06:16:35;;;;;;;8.65;6.28;;;27.30;58.50;;;;;;6235954;27;80455;-69
2021/06/21 06:19:35;;;;;;;8.43;6.63;;;27.30;58.30;;;;;;6233939;27;80662;-69
2021/06/21 06:22:36;;;;;;;11.18;6.07;;;27.30;58.10;;;;;;6240536;27;80180;-71
2021/06/21 06:25:37;;;;;;;12.68;6.43;;;27.30;58.70;;;;;;6232945;27;81909;-70
2021/06/21 06:28:39;;;;;;;8.38;5.85;;;27.30;58.50;;;;;;6220121;27;80673;-70
2021/06/21 06:31:41;;;;;;;9.05;5.90;;;27.30;58.80;;;;;;6235356;27;80525;-71
2021/06/21 06:34:42;;;;;;;10.02;6.00;;;27.30;58.60;;;;;;6233434;27;82899;-66
2021/06/21 06:37:42;;;;;;;14.13;5.80;;;27.30;58.10;;;;;;6235441;28;80445;-70
2021/06/21 06:40:43;;;;;;;9.20;5.95;;;27.30;58.00;;;;;;6224728;27;81473;-71
2021/06/21 06:43:43;;;;;;;13.20;5.43;;;27.30;58.20;;;;;;6231223;28;80627;-68
2021/06/21 06:46:44;;;;;;;7.32;5.82;;;27.30;57.50;;;;;;6233352;27;80861;-70
2021/06/21 06:49:45;;;;;;;13.00;6.10;;;27.30;57.70;;;;;;6223053;27;80705;-71
2021/06/21 06:52:47;;;;;;;13.05;5.90;;;27.30;58.20;;;;;;6230190;27;80547;-70
2021/06/21 06:59:07;;;;;;;11.10;6.20;;;27.30;58.10;;;;;;6228031;28;80487;-73
2021/06/21 07:02:07;;;;;;;11.07;5.60;;;27.40;58.30;;;;;;6230567;27;81550;-72
2021/06/21 07:05:08;;;;;;;12.27;6.00;;;27.40;58.40;;;;;;6229586;27;80814;-71
2021/06/21 07:08:08;;;;;;;9.00;5.85;;;27.40;58.10;;;;;;6230740;28;81039;-73
2021/06/21 07:11:09;;;;;;;17.92;6.50;;;27.40;58.20;;;;;;6231152;27;80375;-73
2021/06/21 07:14:09;;;;;;;9.75;5.55;;;27.40;58.20;;;;;;6228638;27;81406;-71
2021/06/21 07:17:10;;;;;;;14.90;6.13;;;27.40;58.10;;;;;;6228679;28;80263;-70
2021/06/21 07:20:10;;;;;;;19.67;5.38;;;27.40;57.70;;;;;;6230416;27;81114;-69
2021/06/21 07:23:11;;;;;;;9.90;5.57;;;27.40;57.60;;;;;;6230262;27;80011;-68
2021/06/21 07:26:11;;;;;;;11.57;5.72;;;27.50;57.40;;;;;;6229889;28;80596;-69
2021/06/21 07:29:12;;;;;;;14.02;5.65;;;27.50;57.40;;;;;;6230029;27;80199;-68
2021/06/21 07:32:12;;;;;;;12.43;5.50;;;27.50;57.50;;;;;;6228212;28;80298;-71
2021/06/21 07:35:13;;;;;;;8.60;5.82;;;27.50;57.50;;;;;;6226412;27;80947;-69
2021/06/21 07:38:13;;;;;;;14.07;6.88;;;27.50;57.70;;;;;;6229229;27;82128;-69
2021/06/21 07:41:14;;;;;;;16.20;5.57;;;27.50;57.80;;;;;;6227932;27;80415;-70
2021/06/21 07:44:14;;;;;;;13.65;4.95;;;27.50;57.50;;;;;;6227759;28;82179;-68
2021/06/21 07:47:15;;;;;;;8.18;5.20;;;27.50;57.40;;;;;;6228907;27;80759;-69
2021/06/21 07:50:16;;;;;;;11.90;5.40;;;27.50;57.30;;;;;;6226019;28;81326;-69
2021/06/21 07:53:16;;;;;;;10.98;5.20;;;27.50;57.50;;;;;;6232549;27;80666;-68
2021/06/21 07:56:16;;;;;;;9.82;5.00;;;27.50;57.40;;;;;;6241709;27;80822;-69
2021/06/21 07:59:17;;;;;;;53.92;20.75;;;27.50;57.40;;;;;;6237690;28;80513;-68
2021/06/21 08:02:18;;;;;;;148.65;60.00;;;27.50;57.30;;;;;;6229988;27;82845;-69
2021/06/21 08:05:18;;;;;;;195.15;73.45;;;27.50;57.20;;;;;;6230325;27;83279;-68
2021/06/21 08:08:19;;;;;;;223.75;89.55;;;27.50;57.30;;;;;;6239824;27;84061;-69
2021/06/21 08:11:19;;;;;;;282.40;110.57;;;27.50;57.30;;;;;;6242805;27;83173;-68
2021/06/21 08:14:20;;;;;;;232.02;88.97;;;27.60;57.50;;;;;;6223945;28;85396;-68
2021/06/21 08:17:20;;;;;;;164.70;63.47;;;27.60;57.10;;;;;;6214562;28;85666;-68
2021/06/21 08:20:21;;;;;;;143.73;52.05;;;27.60;57.40;;;;;;6240622;27;83738;-68
2021/06/21 08:23:21;;;;;;;88.82;34.20;;;27.60;56.60;;;;;;6242125;28;83103;-69
2021/06/21 08:26:22;;;;;;;70.07;27.63;;;27.60;56.10;;;;;;6237664;27;82919;-68
2021/06/21 08:29:22;;;;;;;79.03;31.60;;;27.60;56.50;;;;;;6233620;27;83493;-69
2021/06/21 08:32:23;;;;;;;67.55;27.70;;;27.60;56.30;;;;;;6240224;27;83899;-68
2021/06/21 08:35:23;;;;;;;63.83;22.88;;;27.60;56.30;;;;;;6229318;28;84879;-67
2021/06/21 08:38:24;;;;;;;49.22;17.98;;;27.60;56.50;;;;;;6232940;27;83424;-67
2021/06/21 08:41:24;;;;;;;36.58;14.98;;;27.60;56.20;;;;;;6238433;27;83429;-67
2021/06/21 08:44:25;;;;;;;24.73;11.75;;;27.60;56.50;;;;;;6242173;27;83485;-67
2021/06/21 08:47:25;;;;;;;18.27;9.52;;;27.60;56.70;;;;;;6231251;27;83246;-66
2021/06/21 08:50:26;;;;;;;19.92;9.68;;;27.60;56.40;;;;;;6242963;27;83348;-66
2021/06/21 08:53:26;;;;;;;33.90;10.77;;;27.60;56.70;;;;;;6244357;27;80669;-67
2021/06/21 08:56:27;;;;;;;20.10;8.27;;;27.70;57.00;;;;;;6240074;27;83330;-67
2021/06/21 08:59:27;;;;;;;15.35;6.57;;;27.70;56.60;;;;;;6236988;28;83429;-66
2021/06/21 09:02:28;;;;;;;15.90;7.45;;;27.70;56.20;;;;;;6234153;28;81401;-66
2021/06/21 09:05:29;;;;;;;17.20;6.90;;;27.70;56.40;;;;;;6240520;27;82574;-66
2021/06/21 09:08:29;;;;;;;19.80;6.43;;;27.70;56.00;;;;;;6243076;27;81133;-66
2021/06/21 09:11:30;;;;;;;13.80;6.28;;;27.70;56.10;;;;;;6238262;27;81037;-66
2021/06/21 09:14:30;;;;;;;18.48;7.15;;;27.70;56.40;;;;;;6236506;27;81610;-67
2021/06/21 09:17:31;;;;;;;12.45;5.63;;;27.70;56.10;;;;;;6237562;27;80939;-67
2021/06/21 09:20:31;;;;;;;11.90;5.22;;;27.70;55.70;;;;;;6237813;27;81364;-66
2021/06/21 09:23:32;;;;;;;13.57;5.60;;;27.70;55.80;;;;;;6237943;27;81244;-67
2021/06/21 09:26:32;;;;;;;14.35;5.38;;;27.70;56.00;;;;;;6238120;27;81223;-67
2021/06/21 09:29:33;;;;;;;21.58;5.93;;;27.70;55.80;;;;;;6237866;27;81450;-67
2021/06/21 09:32:33;;;;;;;18.42;5.00;;;27.70;55.90;;;;;;6237259;27;80665;-67
2021/06/21 09:35:34;;;;;;;10.40;4.32;;;27.80;56.00;;;;;;6236707;27;80183;-68
2021/06/21 09:38:35;;;;;;;14.65;4.80;;;27.70;55.50;;;;;;6236630;27;80580;-67
2021/06/21 09:41:35;;;;;;;17.00;5.43;;;27.80;54.80;;;;;;6246855;27;80579;-67
2021/06/21 09:44:36;;;;;;;13.35;4.30;;;27.80;54.60;;;;;;6237111;27;82186;-69
2021/06/21 09:47:40;;;;;;;12.02;4.70;;;27.80;55.10;;;;;;6236453;27;80571;-67
2021/06/21 09:50:41;;;;;;;15.27;5.43;;;27.80;56.80;;;;;;6235496;27;81422;-69
2021/06/21 09:53:41;;;;;;;17.67;4.60;;;27.80;57.50;;;;;;6235860;27;80868;-68
2021/06/21 09:56:42;;;;;;;14.15;4.80;;;27.80;58.10;;;;;;6236395;27;80892;-69
2021/06/21 09:59:43;;;;;;;10.73;3.97;;;27.80;58.50;;;;;;6234621;27;80707;-68
2021/06/21 10:02:43;;;;;;;18.00;3.83;;;27.80;56.10;;;;;;6245205;27;80754;-69
2021/06/21 10:05:44;;;;;;;15.55;4.82;;;27.90;56.10;;;;;;6230573;27;81646;-68
2021/06/21 10:08:45;;;;;;;11.45;3.95;;;27.90;56.00;;;;;;6235123;27;82248;-69
2021/06/21 10:11:46;;;;;;;13.32;4.65;;;27.90;55.10;;;;;;6241811;27;80850;-68
2021/06/21 10:14:47;;;;;;;9.50;3.55;;;27.90;56.00;;;;;;6235578;28;81364;-67
2021/06/21 10:17:47;;;;;;;6.57;3.55;;;27.90;55.00;;;;;;6235230;27;80588;-66
2021/06/21 10:20:48;;;;;;;14.27;3.55;;;27.90;53.90;;;;;;6236212;28;80512;-67
2021/06/21 10:23:48;;;;;;;6.97;3.60;;;28.00;54.00;;;;;;6235423;27;80519;-68
2021/06/21 10:26:52;;;;;;;12.60;3.72;;;27.90;54.30;;;;;;6236217;27;81314;-67
2021/06/21 10:29:53;;;;;;;7.65;3.50;;;28.00;53.40;;;;;;6235000;27;80413;-67
2021/06/21 10:32:53;;;;;;;16.45;4.50;;;27.90;53.40;;;;;;6234374;27;80585;-67
2021/06/21 10:35:54;;;;;;;10.35;4.22;;;28.00;52.50;;;;;;6237664;27;80199;-67
2021/06/21 10:38:54;;;;;;;9.82;3.70;;;28.00;51.80;;;;;;6237448;27;81170;-68
2021/06/21 10:41:55;;;;;;;11.95;4.35;;;28.10;52.00;;;;;;6239643;27;80362;-66
2021/06/21 10:44:56;;;;;;;13.07;3.78;;;28.20;51.00;;;;;;6235973;27;80762;-65
2021/06/21 10:47:57;;;;;;;15.80;3.70;;;28.10;51.40;;;;;;6228793;27;80472;-66
2021/06/21 10:50:58;;;;;;;8.20;3.58;;;28.10;51.90;;;;;;6235141;27;80855;-65
2021/06/21 10:53:59;;;;;;;8.98;4.25;;;28.20;50.70;;;;;;6239694;27;82274;-64
2021/06/21 10:56:59;;;;;;;5.43;3.72;;;28.20;50.40;;;;;;6233903;28;81364;-67
2021/06/21 11:00:00;;;;;;;18.08;3.67;;;28.20;51.30;;;;;;6234654;28;80596;-65
2021/06/21 11:03:00;;;;;;;8.07;4.00;;;28.10;51.60;;;;;;6236842;27;80403;-65
2021/06/21 11:06:01;;;;;;;11.90;4.30;;;28.10;51.30;;;;;;6237146;27;80252;-65
2021/06/21 11:09:02;;;;;;;27.63;4.32;;;28.10;50.90;;;;;;6234491;27;80272;-64
2021/06/21 11:12:04;;;;;;;6.35;3.25;;;28.00;51.30;;;;;;6234423;27;80811;-64
2021/06/21 11:15:08;;;;;;;8.50;3.15;;;28.00;51.00;;;;;;6221226;28;80785;-65
2021/06/21 11:18:09;;;;;;;11.30;4.45;;;28.00;51.20;;;;;;6219303;28;81062;-65
2021/06/21 11:21:09;;;;;;;10.07;3.75;;;28.10;51.20;;;;;;6226589;28;81547;-65
2021/06/21 11:24:10;;;;;;;10.10;4.25;;;28.20;50.50;;;;;;6234354;27;80802;-66
2021/06/21 11:27:10;;;;;;;11.23;3.35;;;28.20;50.30;;;;;;6232056;27;80900;-66
2021/06/21 11:30:11;;;;;;;12.27;3.85;;;28.30;49.20;;;;;;6234497;27;80445;-65
2021/06/21 11:33:11;;;;;;;14.15;4.40;;;28.40;49.10;;;;;;6226181;28;83131;-66
2021/06/21 11:36:12;;;;;;;7.75;3.85;;;28.30;49.30;;;;;;6226007;28;80567;-66
2021/06/21 11:39:12;;;;;;;13.50;3.67;;;28.30;50.00;;;;;;6232129;28;81062;-66
2021/06/21 11:42:13;;;;;;;8.18;3.85;;;28.20;49.70;;;;;;6236828;27;80987;-66
2021/06/21 11:45:13;;;;;;;11.40;4.28;;;28.20;50.00;;;;;;6235024;27;80325;-66
2021/06/21 11:48:14;;;;;;;12.88;4.20;;;28.20;50.10;;;;;;6232593;28;81468;-71
2021/06/21 11:51:14;;;;;;;5.05;3.17;;;28.30;49.80;;;;;;6231296;27;80821;-66
2021/06/21 11:54:15;;;;;;;11.15;3.53;;;28.30;50.00;;;;;;6231473;27;80504;-68
2021/06/21 11:57:15;;;;;;;6.60;3.53;;;28.40;49.40;;;;;;6233700;27;80540;-68
2021/06/21 12:00:16;;;;;;;9.77;3.15;;;28.40;49.70;;;;;;6231575;28;81485;-68
2021/06/21 12:03:16;;;;;;;9.30;3.88;;;28.40;49.90;;;;;;6228485;28;81125;-67
2021/06/21 12:06:17;;;;;;;9.02;4.03;;;28.50;49.20;;;;;;6238154;27;80477;-68
2021/06/21 12:09:17;;;;;;;5.38;3.08;;;28.60;48.10;;;;;;6236602;27;81677;-67
2021/06/21 12:12:18;;;;;;;6.07;3.30;;;28.70;47.40;;;;;;6227221;28;80600;-67
2021/06/21 12:15:18;;;;;;;11.23;4.07;;;28.80;47.20;;;;;;6229557;28;81185;-67
2021/06/21 12:18:19;;;;;;;6.03;3.40;;;28.70;48.10;;;;;;6232943;28;80549;-67
2021/06/21 12:21:19;;;;;;;10.32;3.13;;;28.70;48.70;;;;;;6232667;27;81039;-67
2021/06/21 12:24:20;;;;;;;7.88;3.13;;;28.80;48.40;;;;;;6234567;28;80360;-67
2021/06/21 12:27:21;;;;;;;9.20;3.45;;;28.70;48.80;;;;;;6233187;27;80411;-68
2021/06/21 12:30:22;;;;;;;9.80;3.10;;;28.80;48.20;;;;;;6232663;28;80392;-67
2021/06/21 12:33:22;;;;;;;12.02;3.28;;;28.80;48.50;;;;;;6231163;27;83321;-68
2021/06/21 12:36:26;;;;;;;7.13;2.95;;;28.80;48.00;;;;;;6232535;28;80317;-68
2021/06/21 12:39:27;;;;;;;12.82;3.55;;;28.80;48.50;;;;;;6232610;27;80854;-67
2021/06/21 12:42:28;;;;;;;7.47;3.22;;;28.80;48.70;;;;;;6230864;27;80197;-68
2021/06/21 12:45:28;;;;;;;7.07;3.63;;;28.70;48.80;;;;;;6237378;27;80636;-68
2021/06/21 12:48:29;;;;;;;9.15;3.88;;;28.80;48.10;;;;;;6228945;27;81006;-67
2021/06/21 12:51:29;;;;;;;5.05;3.00;;;28.80;48.40;;;;;;6228610;28;81314;-68
2021/06/21 12:54:33;;;;;;;6.20;3.53;;;28.80;48.10;;;;;;6234606;28;80569;-67
2021/06/21 12:57:34;;;;;;;10.50;3.17;;;28.90;47.50;;;;;;6229552;27;80693;-67
2021/06/21 13:00:34;;;;;;;9.27;3.65;;;28.90;47.90;;;;;;6236606;27;80279;-67
2021/06/21 13:03:36;;;;;;;14.40;3.65;;;28.90;48.00;;;;;;6235118;27;81083;-67
2021/06/21 13:06:36;;;;;;;6.68;3.47;;;28.90;48.20;;;;;;6234907;27;82434;-67
2021/06/21 13:09:37;;;;;;;6.95;3.50;;;28.80;48.80;;;;;;6231192;28;80642;-68
2021/06/21 13:12:40;;;;;;;6.20;3.42;;;28.90;47.80;;;;;;6229479;27;81014;-68
2021/06/21 13:15:41;;;;;;;5.68;3.42;;;28.90;48.10;;;;;;6235739;28;80936;-68
2021/06/21 13:18:41;;;;;;;7.57;3.38;;;28.80;48.50;;;;;;6236190;27;82000;-68
2021/06/21 13:21:42;;;;;;;11.68;3.92;;;28.80;48.30;;;;;;6223068;28;82093;-68
2021/06/21 13:24:42;;;;;;;11.15;4.20;;;29.00;47.50;;;;;;6234572;27;80382;-67
2021/06/21 13:27:43;;;;;;;7.63;3.58;;;28.90;48.10;;;;;;6235615;27;80490;-68
2021/06/21 13:30:44;;;;;;;11.43;3.85;;;28.90;47.50;;;;;;6233775;27;80852;-67
2021/06/21 13:33:44;;;;;;;16.95;3.85;;;28.90;47.90;;;;;;6227007;28;80919;-68
2021/06/21 13:36:45;;;;;;;9.45;4.03;;;28.90;48.30;;;;;;6231268;27;82109;-67
2021/06/21 13:39:46;;;;;;;8.30;3.60;;;28.90;48.80;;;;;;6231431;27;80948;-68
2021/06/21 13:42:46;;;;;;;11.20;3.92;;;28.80;49.30;;;;;;6233856;28;80970;-67
2021/06/21 13:45:47;;;;;;;8.30;3.58;;;28.90;48.40;;;;;;6235261;27;81826;-67
2021/06/21 13:48:47;;;;;;;5.85;4.00;;;29.00;48.20;;;;;;6229487;27;80864;-67
2021/06/21 13:51:48;;;;;;;8.10;3.60;;;28.90;48.30;;;;;;6231633;27;80821;-67
2021/06/21 13:54:48;;;;;;;10.52;3.92;;;29.00;47.80;;;;;;6231536;27;80647;-67
2021/06/21 13:57:49;;;;;;;12.20;3.60;;;28.90;47.80;;;;;;6229928;28;80692;-67
2021/06/21 14:00:49;;;;;;;8.35;3.03;;;29.00;47.90;;;;;;6228292;28;80201;-67
2021/06/21 14:03:50;;;;;;;7.00;3.47;;;29.00;46.80;;;;;;6232161;28;80244;-67
2021/06/21 14:06:50;;;;;;;18.08;3.92;;;29.00;46.90;;;;;;6235116;27;80511;-68
2021/06/21 14:09:51;;;;;;;7.35;3.70;;;29.00;48.10;;;;;;6234655;28;80642;-67
2021/06/21 14:12:51;;;;;;;9.18;4.35;;;28.90;48.60;;;;;;6235926;27;80781;-67
2021/06/21 14:15:52;;;;;;;9.07;4.00;;;29.00;48.60;;;;;;6235652;27;80480;-68
2021/06/21 14:18:52;;;;;;;6.72;4.10;;;29.00;48.10;;;;;;6234297;27;80659;-68
2021/06/21 14:21:53;;;;;;;11.50;4.38;;;28.90;48.50;;;;;;6233896;28;80490;-68
2021/06/21 14:24:53;;;;;;;5.25;3.50;;;28.90;48.90;;;;;;6234863;27;80513;-66
2021/06/21 14:27:54;;;;;;;16.33;3.53;;;28.90;48.80;;;;;;6241335;27;80921;-67
2021/06/21 14:30:54;;;;;;;6.32;3.70;;;28.90;48.80;;;;;;6234621;27;80313;-67
2021/06/21 14:33:56;;;;;;;9.10;3.85;;;28.90;48.30;;;;;;6245395;27;80773;-67
2021/06/21 14:36:58;;;;;;;10.25;4.15;;;28.90;48.60;;;;;;6235862;28;80498;-67
2021/06/21 14:40:01;;;;;;;11.77;3.92;;;28.90;48.80;;;;;;6238378;27;80471;-67
2021/06/21 14:43:01;;;;;;;7.60;4.00;;;28.90;49.10;;;;;;6234718;27;81335;-68
2021/06/21 14:46:02;;;;;;;4.55;3.33;;;28.90;49.20;;;;;;6233955;27;80141;-67
2021/06/21 14:49:04;;;;;;;8.90;3.72;;;28.90;50.00;;;;;;6241381;27;81016;-67
2021/06/21 14:52:04;;;;;;;8.45;4.15;;;28.80;50.10;;;;;;6238577;27;81620;-66
2021/06/21 14:55:05;;;;;;;11.82;4.28;;;28.80;50.20;;;;;;6234096;28;80335;-66
2021/06/21 14:58:05;;;;;;;12.90;4.55;;;28.80;50.30;;;;;;6242637;27;81207;-67
2021/06/21 15:01:06;;;;;;;19.52;3.70;;;28.80;50.70;;;;;;6234662;27;80320;-67
2021/06/21 15:04:06;;;;;;;10.48;3.88;;;28.70;50.70;;;;;;6237966;27;82520;-67
2021/06/21 15:07:07;;;;;;;6.55;3.97;;;28.70;51.40;;;;;;6240909;27;80774;-68
2021/06/21 15:10:07;;;;;;;8.93;4.00;;;28.70;50.90;;;;;;6238038;27;81536;-66
2021/06/21 15:13:08;;;;;;;7.57;3.53;;;28.70;51.20;;;;;;6232819;27;80515;-65
2021/06/21 15:16:09;;;;;;;5.45;3.63;;;28.70;51.20;;;;;;6239867;27;80418;-65
2021/06/21 15:19:09;;;;;;;6.63;3.72;;;28.70;51.40;;;;;;6234730;27;81437;-65
2021/06/21 15:22:10;;;;;;;8.70;3.63;;;28.70;51.50;;;;;;6240062;27;81781;-65
2021/06/21 15:25:10;;;;;;;8.40;3.47;;;28.70;51.60;;;;;;6239347;27;81233;-66
2021/06/21 15:28:11;;;;;;;8.68;3.85;;;28.70;51.90;;;;;;6239083;27;81360;-66
2021/06/21 15:31:11;;;;;;;5.88;3.63;;;28.60;51.90;;;;;;6242391;28;87742;-66
2021/06/21 15:34:12;;;;;;;7.38;3.40;;;28.70;52.30;;;;;;6236223;27;80363;-66